createdAt,value
2022-09-28T00:00:30.357Z,90
2022-09-28T00:02:30.842Z,90
2022-09-28T00:04:34.205Z,90
2022-09-28T00:06:31.889Z,90
2022-09-28T00:08:30.572Z,90
2022-09-28T00:10:32.848Z,90
2022-09-28T00:14:32.798Z,90
2022-09-28T00:16:30.704Z,90
2022-09-28T00:18:33.097Z,90
2022-09-28T00:20:30.726Z,90
2022-09-28T00:22:33.516Z,90
2022-09-28T00:24:33.329Z,90
2022-09-28T00:26:28.842Z,90
2022-09-28T00:28:34.073Z,90
2022-09-28T00:30:32.335Z,90
2022-09-28T00:32:31.455Z,90
2022-09-28T00:34:32.066Z,90
2022-09-28T00:36:31.501Z,90
2022-09-28T00:38:32.022Z,90
2022-09-28T00:40:31.961Z,90
2022-09-28T00:42:37.007Z,90
2022-09-28T00:44:31.965Z,90
2022-09-28T00:46:36.815Z,90
2022-09-28T00:48:31.106Z,90
2022-09-28T00:50:33.827Z,90
2022-09-28T00:54:32.501Z,90
2022-09-28T00:56:35.388Z,90
2022-09-28T00:58:32.023Z,90
2022-09-28T01:00:28.881Z,90
2022-09-28T01:02:33.795Z,90
2022-09-28T01:04:33.600Z,90
2022-09-28T01:06:33.652Z,90
2022-09-28T01:08:30.949Z,90
2022-09-28T01:10:33.832Z,90
2022-09-28T01:12:30.943Z,90
2022-09-28T01:14:32.807Z,90
2022-09-28T01:16:30.691Z,90
2022-09-28T01:18:30.805Z,90
2022-09-28T01:20:32.914Z,90
2022-09-28T01:22:32.356Z,90
2022-09-28T01:24:31.754Z,90
2022-09-28T01:26:31.998Z,90
2022-09-28T01:28:33.888Z,90
2022-09-28T01:30:32.345Z,90
2022-09-28T01:32:33.808Z,90
2022-09-28T01:34:37.330Z,90
2022-09-28T01:36:30.702Z,89
2022-09-28T01:38:34.033Z,90
2022-09-28T01:40:30.586Z,89
2022-09-28T01:42:30.787Z,89
2022-09-28T01:44:32.572Z,89
2022-09-28T01:46:30.045Z,90
2022-09-28T01:48:31.921Z,90
2022-09-28T01:50:30.546Z,90
2022-09-28T01:52:31.027Z,89
2022-09-28T01:54:31.955Z,89
2022-09-28T01:56:30.698Z,89
2022-09-28T01:58:33.876Z,89
2022-09-28T02:00:32.408Z,89
2022-09-28T02:02:32.997Z,89
2022-09-28T02:04:32.142Z,89
2022-09-28T02:06:31.644Z,89
2022-09-28T02:08:32.082Z,89
2022-09-28T02:10:31.876Z,89
2022-09-28T02:12:33.864Z,89
2022-09-28T02:14:30.812Z,89
2022-09-28T02:16:33.107Z,89
2022-09-28T02:18:30.859Z,89
2022-09-28T02:20:31.167Z,89
2022-09-28T02:22:33.339Z,89
2022-09-28T02:24:30.937Z,89
2022-09-28T02:26:36.989Z,89
2022-09-28T02:28:31.882Z,89
2022-09-28T02:30:33.970Z,89
2022-09-28T02:32:31.179Z,89
2022-09-28T02:34:31.915Z,89
2022-09-28T02:36:33.659Z,89
2022-09-28T02:38:30.932Z,89
2022-09-28T02:40:33.010Z,89
2022-09-28T02:42:30.666Z,89
2022-09-28T02:44:31.557Z,89
2022-09-28T02:46:32.879Z,88
2022-09-28T02:48:42.976Z,89
2022-09-28T02:50:34.147Z,88
2022-09-28T02:52:30.855Z,88
2022-09-28T02:54:33.070Z,88
2022-09-28T02:56:31.658Z,88
2022-09-28T02:58:33.566Z,89
2022-09-28T03:00:32.085Z,89
2022-09-28T03:02:30.787Z,89
2022-09-28T03:04:32.346Z,89
2022-09-28T03:06:37.486Z,88
2022-09-28T03:08:31.399Z,88
2022-09-28T03:10:32.926Z,88
2022-09-28T03:12:33.162Z,88
2022-09-28T03:14:30.910Z,89
2022-09-28T03:16:30.604Z,88
2022-09-28T03:18:30.939Z,88
2022-09-28T03:20:32.871Z,88
2022-09-28T03:22:33.180Z,88
2022-09-28T03:24:33.301Z,88
2022-09-28T03:26:33.085Z,88
2022-09-28T03:30:33.587Z,88
2022-09-28T03:32:33.564Z,88
2022-09-28T03:34:32.777Z,88
2022-09-28T03:36:31.889Z,88
2022-09-28T03:38:30.730Z,88
2022-09-28T03:40:32.640Z,88
2022-09-28T03:42:28.878Z,88
2022-09-28T03:44:30.811Z,88
2022-09-28T03:46:33.001Z,88
2022-09-28T03:48:32.523Z,88
2022-09-28T03:50:32.242Z,88
2022-09-28T03:52:33.911Z,88
2022-09-28T03:54:33.146Z,87
2022-09-28T03:56:32.511Z,87
2022-09-28T03:58:33.729Z,87
2022-09-28T04:00:35.413Z,87
2022-09-28T04:02:32.548Z,87
2022-09-28T04:04:32.835Z,87
2022-09-28T04:06:30.358Z,87
2022-09-28T04:08:30.832Z,87
2022-09-28T04:10:32.771Z,87
2022-09-28T04:12:30.816Z,87
2022-09-28T04:14:30.848Z,87
2022-09-28T04:16:31.681Z,87
2022-09-28T04:18:32.350Z,87
2022-09-28T04:20:33.402Z,87
2022-09-28T04:22:32.961Z,87
2022-09-28T04:24:31.956Z,87
2022-09-28T04:26:34.018Z,87
2022-09-28T04:28:31.183Z,87
2022-09-28T04:30:30.789Z,87
2022-09-28T04:32:30.294Z,88
2022-09-28T04:34:35.858Z,87
2022-09-28T04:36:30.787Z,87
2022-09-28T04:38:51.564Z,87
2022-09-28T04:40:31.202Z,87
2022-09-28T04:42:32.958Z,87
2022-09-28T04:44:30.926Z,87
2022-09-28T04:46:31.608Z,87
2022-09-28T04:48:32.911Z,87
2022-09-28T04:50:33.820Z,87
2022-09-28T04:54:30.789Z,87
2022-09-28T04:56:33.885Z,87
2022-09-28T04:58:30.964Z,87
2022-09-28T05:00:30.901Z,87
2022-09-28T05:02:31.271Z,87
2022-09-28T05:04:33.191Z,87
2022-09-28T05:06:31.569Z,86
2022-09-28T05:08:32.447Z,86
2022-09-28T05:10:28.864Z,86
2022-09-28T05:12:33.980Z,86
2022-09-28T05:14:31.118Z,86
2022-09-28T05:16:30.978Z,86
2022-09-28T05:18:34.102Z,86
2022-09-28T05:20:31.106Z,86
2022-09-28T05:22:31.294Z,86
2022-09-28T05:24:30.865Z,87
2022-09-28T05:26:32.096Z,86
2022-09-28T05:28:32.503Z,87
2022-09-28T05:30:33.402Z,86
2022-09-28T05:32:34.073Z,86
2022-09-28T05:34:34.340Z,86
2022-09-28T05:36:33.366Z,86
2022-09-28T05:38:30.342Z,87
2022-09-28T05:40:30.866Z,86
2022-09-28T05:42:33.020Z,87
2022-09-28T05:44:33.485Z,86
2022-09-28T05:46:33.965Z,86
2022-09-28T05:48:32.202Z,86
2022-09-28T05:50:32.525Z,86
2022-09-28T05:52:33.987Z,86
2022-09-28T05:54:33.596Z,87
2022-09-28T05:56:33.042Z,87
2022-09-28T05:58:30.672Z,87
2022-09-28T06:02:30.850Z,87
2022-09-28T06:04:32.310Z,87
2022-09-28T06:06:31.965Z,87
2022-09-28T06:08:30.852Z,87
2022-09-28T06:10:32.493Z,87
2022-09-28T06:12:31.454Z,87
2022-09-28T06:14:30.838Z,87
2022-09-28T06:16:33.075Z,87
2022-09-28T06:18:29.298Z,87
2022-09-28T06:20:33.664Z,88
2022-09-28T06:22:30.835Z,88
2022-09-28T06:24:32.541Z,88
2022-09-28T06:26:33.985Z,88
2022-09-28T06:28:30.796Z,88
2022-09-28T06:30:33.789Z,88
2022-09-28T06:32:30.807Z,89
2022-09-28T06:34:32.671Z,89
2022-09-28T06:36:33.023Z,89
2022-09-28T06:38:32.837Z,89
2022-09-28T06:40:31.857Z,89
2022-09-28T06:42:32.389Z,89
2022-09-28T06:44:32.577Z,89
2022-09-28T06:46:30.791Z,89
2022-09-28T06:48:32.975Z,89
2022-09-28T06:50:32.973Z,89
2022-09-28T06:52:33.443Z,89
2022-09-28T06:54:32.045Z,89
2022-09-28T06:56:34.257Z,90
2022-09-28T06:58:33.945Z,90
2022-09-28T07:00:37.370Z,90
2022-09-28T07:02:30.910Z,90
2022-09-28T07:04:32.516Z,90
2022-09-28T07:06:33.211Z,90
2022-09-28T07:08:30.673Z,90
2022-09-28T07:10:32.422Z,90
2022-09-28T07:12:33.061Z,90
2022-09-28T07:14:43.858Z,90
2022-09-28T07:16:55.849Z,90
2022-09-28T07:20:47.365Z,90
2022-09-28T07:22:39.997Z,89
2022-09-28T07:24:32.766Z,89
2022-09-28T07:26:33.435Z,89
2022-09-28T07:28:33.728Z,88
2022-09-28T07:30:30.875Z,89
2022-09-28T07:32:32.458Z,88
2022-09-28T07:34:30.830Z,88
2022-09-28T07:36:34.353Z,89
2022-09-28T07:38:32.052Z,89
2022-09-28T07:40:32.168Z,89
2022-09-28T07:42:33.917Z,89
2022-09-28T07:44:30.917Z,89
2022-09-28T07:46:30.952Z,89
2022-09-28T07:48:32.823Z,89
2022-09-28T07:50:32.535Z,89
2022-09-28T07:52:32.483Z,89
2022-09-28T07:54:31.626Z,89
2022-09-28T07:56:32.137Z,89
2022-09-28T07:58:33.972Z,89
2022-09-28T08:00:34.469Z,89
2022-09-28T08:04:31.334Z,89
2022-09-28T08:06:37.195Z,89
2022-09-28T08:08:33.362Z,89
2022-09-28T08:10:32.960Z,89
2022-09-28T08:12:30.876Z,89
2022-09-28T08:14:33.363Z,89
2022-09-28T08:16:32.822Z,89
2022-09-28T08:18:32.429Z,89
2022-09-28T08:20:34.038Z,89
2022-09-28T08:22:34.259Z,89
2022-09-28T08:24:32.364Z,89
2022-09-28T08:26:31.202Z,89
2022-09-28T08:28:32.214Z,89
2022-09-28T08:30:31.285Z,89
2022-09-28T08:34:19.938Z,88
2022-09-28T08:36:21.074Z,88
2022-09-28T08:38:21.902Z,88
2022-09-28T08:40:25.905Z,87
2022-09-28T08:42:20.895Z,87
2022-09-28T08:44:20.905Z,87
2022-09-28T08:46:23.778Z,86
2022-09-28T08:48:24.128Z,85
2022-09-28T08:52:21.127Z,85
2022-09-28T08:54:22.229Z,86
2022-09-28T08:56:21.004Z,86
2022-09-28T08:58:21.933Z,85
2022-09-28T09:00:21.238Z,86
2022-09-28T09:02:24.779Z,86
2022-09-28T09:04:22.063Z,86
2022-09-28T09:06:24.188Z,86
2022-09-28T09:08:20.916Z,85
2022-09-28T09:12:26.063Z,84
2022-09-28T09:14:18.647Z,84
2022-09-28T09:16:24.928Z,84
2022-09-28T09:18:23.682Z,84
2022-09-28T09:20:20.826Z,84
2022-09-28T09:22:24.184Z,84
2022-09-28T09:24:23.954Z,83
2022-09-28T09:26:25.185Z,83
2022-09-28T09:28:25.791Z,84
2022-09-28T09:30:26.694Z,84
2022-09-28T09:32:26.042Z,84
2022-09-28T09:34:25.113Z,84
2022-09-28T09:36:22.877Z,84
2022-09-28T09:38:21.183Z,84
2022-09-28T09:40:21.306Z,84
2022-09-28T09:42:21.018Z,84
2022-09-28T09:44:24.304Z,84
2022-09-28T09:46:21.057Z,84
2022-09-28T09:48:22.571Z,84
2022-09-28T09:50:23.931Z,84
2022-09-28T09:52:24.655Z,84
2022-09-28T09:54:23.416Z,85
2022-09-28T09:56:22.626Z,85
2022-09-28T09:58:24.741Z,85
2022-09-28T10:00:22.556Z,85
2022-09-28T10:02:19.749Z,85
2022-09-28T10:04:20.987Z,85
2022-09-28T10:06:22.929Z,85
2022-09-28T10:08:22.559Z,85
2022-09-28T10:10:22.588Z,86
2022-09-28T10:12:20.936Z,85
2022-09-28T10:14:23.553Z,85
2022-09-28T10:16:26.554Z,85
2022-09-28T10:18:27.269Z,84
2022-09-28T10:20:21.285Z,85
2022-09-28T10:22:22.146Z,86
2022-09-28T10:24:19.376Z,85
2022-09-28T10:26:25.012Z,85
2022-09-28T10:28:20.954Z,85
2022-09-28T10:30:24.669Z,85
2022-09-28T10:32:21.308Z,85
2022-09-28T10:34:21.243Z,85
2022-09-28T10:36:20.914Z,85
2022-09-28T10:38:25.176Z,85
2022-09-28T10:40:23.889Z,86
2022-09-28T10:42:21.059Z,85
2022-09-28T10:44:20.833Z,85
2022-09-28T10:46:22.605Z,85
2022-09-28T10:48:21.441Z,85
2022-09-28T10:50:23.804Z,85
2022-09-28T10:52:23.698Z,85
2022-09-28T10:54:22.580Z,84
2022-09-28T10:56:22.362Z,84
2022-09-28T10:58:25.009Z,84
2022-09-28T11:00:25.683Z,84
2022-09-28T11:02:25.825Z,83
2022-09-28T11:04:22.781Z,83
2022-09-28T11:06:22.596Z,83
2022-09-28T11:08:25.195Z,83
2022-09-28T11:10:25.749Z,83
2022-09-28T11:12:23.858Z,83
2022-09-28T11:14:21.845Z,84
2022-09-28T11:16:25.618Z,83
2022-09-28T11:18:23.797Z,83
2022-09-28T11:20:27.292Z,84
2022-09-28T11:22:24.084Z,84
2022-09-28T11:24:23.670Z,84
2022-09-28T11:26:23.822Z,84
2022-09-28T11:28:24.800Z,84
2022-09-28T11:30:22.659Z,83
2022-09-28T11:32:21.350Z,83
2022-09-28T11:34:27.702Z,83
2022-09-28T11:36:25.713Z,83
2022-09-28T11:38:19.363Z,83
2022-09-28T11:40:25.909Z,83
2022-09-28T11:42:20.658Z,83
2022-09-28T11:44:27.082Z,83
2022-09-28T11:46:21.350Z,83
2022-09-28T11:48:22.342Z,82
2022-09-28T11:50:24.261Z,82
2022-09-28T11:52:24.980Z,82
2022-09-28T11:54:21.022Z,82
2022-09-28T11:56:21.274Z,82
2022-09-28T11:58:21.868Z,82
2022-09-28T12:00:23.967Z,82
2022-09-28T12:02:25.800Z,82
2022-09-28T12:04:25.931Z,82
2022-09-28T12:06:21.163Z,82
2022-09-28T12:08:19.812Z,82
2022-09-28T12:10:21.274Z,82
2022-09-28T12:12:24.394Z,82
2022-09-28T12:14:22.593Z,82
2022-09-28T12:16:53.401Z,82
2022-09-28T12:18:24.539Z,81
2022-09-28T12:20:26.867Z,81
2022-09-28T12:22:22.568Z,80
2022-09-28T12:24:24.075Z,81
2022-09-28T12:26:21.067Z,80
2022-09-28T12:28:21.037Z,80
2022-09-28T12:30:27.032Z,81
2022-09-28T12:32:23.877Z,81
2022-09-28T12:34:23.384Z,81
2022-09-28T12:36:20.994Z,80
2022-09-28T12:38:24.596Z,81
2022-09-28T12:42:22.090Z,81
2022-09-28T12:44:19.595Z,80
2022-09-28T12:46:21.243Z,81
2022-09-28T12:48:23.679Z,81
2022-09-28T12:50:40.764Z,81
2022-09-28T12:52:25.385Z,81
2022-09-28T12:54:22.155Z,81
2022-09-28T12:56:21.470Z,81
2022-09-28T12:58:25.782Z,81
2022-09-28T13:00:26.223Z,81
2022-09-28T13:02:23.902Z,81
2022-09-28T13:04:21.339Z,81
2022-09-28T13:06:21.867Z,81
2022-09-28T13:08:19.055Z,80
2022-09-28T13:10:22.692Z,80
2022-09-28T13:12:22.655Z,80
2022-09-28T13:14:21.034Z,80
2022-09-28T13:16:26.688Z,81
2022-09-28T13:18:23.936Z,80
2022-09-28T13:20:25.458Z,81
2022-09-28T13:22:24.166Z,80
2022-09-28T13:24:31.987Z,81
2022-09-28T13:26:21.314Z,81
2022-09-28T13:28:23.950Z,81
2022-09-28T13:30:23.841Z,81
2022-09-28T13:32:26.263Z,81
2022-09-28T13:38:25.555Z,81
2022-09-28T13:40:21.948Z,80
2022-09-28T13:42:26.971Z,80
2022-09-28T13:44:24.175Z,81
2022-09-28T13:46:24.654Z,81
2022-09-28T13:48:22.652Z,81
2022-09-28T13:50:24.039Z,80
2022-09-28T13:52:23.295Z,80
2022-09-28T13:54:23.203Z,81
2022-09-28T13:56:23.519Z,81
2022-09-28T13:58:24.190Z,80
2022-09-28T14:00:22.581Z,81
2022-09-28T14:02:23.123Z,80
2022-09-28T14:04:24.206Z,81
2022-09-28T14:06:23.543Z,81
2022-09-28T14:08:25.507Z,81
2022-09-28T14:10:24.577Z,81
2022-09-28T14:12:23.477Z,82
2022-09-28T14:14:24.996Z,82
2022-09-28T14:16:22.377Z,82
2022-09-28T14:18:21.496Z,82
2022-09-28T14:20:23.945Z,83
2022-09-28T14:22:22.026Z,83
2022-09-28T14:24:20.997Z,83
2022-09-28T14:26:21.411Z,83
2022-09-28T14:28:21.082Z,84
2022-09-28T14:30:24.085Z,85
2022-09-28T14:32:22.578Z,84
2022-09-28T14:34:23.877Z,85
2022-09-28T14:36:21.374Z,84
2022-09-28T14:38:21.025Z,83
2022-09-28T14:40:25.818Z,83
2022-09-28T14:42:20.908Z,83
2022-09-28T14:44:24.071Z,83
2022-09-28T14:46:21.055Z,83
2022-09-28T14:48:24.567Z,84
2022-09-28T14:50:25.120Z,84
2022-09-28T14:52:26.489Z,84
2022-09-28T14:54:26.110Z,84
2022-09-28T14:56:21.108Z,83
2022-09-28T14:58:24.753Z,83
2022-09-28T15:03:12.109Z,83
2022-09-28T15:05:11.320Z,83
2022-09-28T15:07:10.840Z,84
2022-09-28T15:09:10.379Z,84
2022-09-28T15:11:11.384Z,84
2022-09-28T15:15:09.391Z,85
2022-09-28T15:21:09.946Z,84
2022-09-28T15:23:11.054Z,85
2022-09-28T15:27:11.359Z,84
2022-09-28T15:29:11.035Z,84
2022-09-28T15:31:10.946Z,85
2022-09-28T15:33:10.403Z,85
2022-09-28T15:35:10.921Z,85
2022-09-28T15:37:10.755Z,85
2022-09-28T15:39:11.322Z,85
2022-09-28T15:45:08.638Z,85
2022-09-28T15:47:11.371Z,85
2022-09-28T15:49:11.244Z,85
2022-09-28T15:51:07.006Z,85
2022-09-28T15:53:07.825Z,85
2022-09-28T15:55:10.957Z,85
2022-09-28T15:57:08.475Z,86
2022-09-28T15:59:11.343Z,86
2022-09-28T16:01:11.577Z,85
2022-09-28T16:03:08.759Z,86
2022-09-28T16:05:10.963Z,86
2022-09-28T16:07:10.994Z,86
2022-09-28T16:09:10.403Z,86
2022-09-28T16:11:10.956Z,85
2022-09-28T16:13:10.784Z,85
2022-09-28T16:15:11.388Z,85
2022-09-28T16:17:11.208Z,86
2022-09-28T16:19:11.727Z,86
2022-09-28T16:21:09.990Z,86
2022-09-28T16:23:11.059Z,86
2022-09-28T16:25:10.986Z,86
2022-09-28T16:27:10.311Z,86
2022-09-28T16:29:11.363Z,86
2022-09-28T16:33:08.438Z,86
2022-09-28T16:35:11.234Z,86
2022-09-28T16:37:10.784Z,86
2022-09-28T16:39:07.758Z,87
2022-09-28T16:41:11.056Z,86
2022-09-28T16:43:11.333Z,87
2022-09-28T16:45:08.587Z,87
2022-09-28T16:47:10.759Z,87
2022-09-28T16:51:10.474Z,86
2022-09-28T16:57:07.534Z,87
2022-09-28T16:59:13.572Z,87
2022-09-28T17:01:10.881Z,87
2022-09-28T17:03:10.104Z,87
2022-09-28T17:07:10.503Z,87
2022-09-28T17:09:08.244Z,87
2022-09-28T17:11:17.893Z,87
2022-09-28T17:13:11.276Z,87
2022-09-28T17:15:10.400Z,87
2022-09-28T17:17:13.858Z,87
2022-09-28T17:19:11.159Z,87
2022-09-28T17:21:09.562Z,87
2022-09-28T17:23:10.972Z,87
2022-09-28T17:25:12.659Z,88
2022-09-28T17:27:08.658Z,88
2022-09-28T17:31:09.113Z,88
2022-09-28T17:33:07.764Z,87
2022-09-28T17:35:23.980Z,88
2022-09-28T17:37:11.430Z,87
2022-09-28T17:39:10.438Z,87
2022-09-28T17:41:11.415Z,87
2022-09-28T17:45:10.490Z,88
2022-09-28T17:49:10.061Z,88
2022-09-28T17:51:09.882Z,88
2022-09-28T17:53:10.957Z,88
2022-09-28T17:57:09.118Z,88
2022-09-28T18:01:11.544Z,88
2022-09-28T18:03:11.508Z,88
2022-09-28T18:05:10.416Z,87
2022-09-28T18:09:08.137Z,87
2022-09-28T18:11:11.036Z,87
2022-09-28T18:13:10.888Z,86
2022-09-28T18:15:08.470Z,86
2022-09-28T18:17:08.056Z,86
2022-09-28T18:19:11.324Z,86
2022-09-28T18:21:09.804Z,86
2022-09-28T18:23:11.026Z,86
2022-09-28T18:25:10.913Z,86
2022-09-28T18:27:08.346Z,86
2022-09-28T18:29:11.435Z,86
2022-09-28T18:33:09.431Z,86
2022-09-28T18:35:11.590Z,86
2022-09-28T18:37:08.742Z,86
2022-09-28T18:39:10.469Z,86
2022-09-28T18:41:10.980Z,87
2022-09-28T18:43:11.381Z,86
2022-09-28T18:45:08.442Z,86
2022-09-28T18:51:08.253Z,86
2022-09-28T18:53:10.348Z,86
2022-09-28T18:55:11.135Z,86
2022-09-28T18:57:09.924Z,86
2022-09-28T19:01:28.780Z,86
2022-09-28T19:03:06.593Z,86
2022-09-28T19:07:11.003Z,87
2022-09-28T19:09:08.269Z,87
2022-09-28T19:11:11.154Z,87
2022-09-28T19:13:11.201Z,87
2022-09-28T19:15:08.532Z,88
2022-09-28T19:21:08.317Z,87
2022-09-28T19:23:10.726Z,88
2022-09-28T19:27:09.033Z,87
2022-09-28T19:29:10.922Z,88
2022-09-28T19:31:09.973Z,87
2022-09-28T19:33:10.796Z,87
2022-09-28T19:39:08.255Z,87
2022-09-28T19:41:10.365Z,87
2022-09-28T19:43:09.878Z,87
2022-09-28T19:45:08.304Z,87
2022-09-28T19:47:10.997Z,87
2022-09-28T19:51:08.224Z,87
2022-09-28T19:57:08.298Z,86
2022-09-28T20:03:09.760Z,87
2022-09-28T20:05:11.352Z,86
2022-09-28T20:09:09.183Z,87
2022-09-28T20:11:11.203Z,87
2022-09-28T20:13:11.001Z,87
2022-09-28T20:15:14.261Z,87
2022-09-28T20:17:10.519Z,87
2022-09-28T20:19:11.116Z,87
2022-09-28T20:21:08.260Z,87
2022-09-28T20:23:10.837Z,87
2022-09-28T20:27:08.166Z,87
2022-09-28T20:33:08.225Z,87
2022-09-28T20:35:11.008Z,87
2022-09-28T20:37:11.440Z,87
2022-09-28T20:39:09.171Z,87
2022-09-28T20:41:11.386Z,87
2022-09-28T20:45:08.222Z,87
2022-09-28T20:49:11.393Z,87
2022-09-28T20:51:07.214Z,87
2022-09-28T20:53:09.323Z,87
2022-09-28T20:55:10.945Z,87
2022-09-28T20:57:09.901Z,87
2022-09-28T20:59:11.363Z,87
2022-09-28T21:03:10.522Z,87
2022-09-28T21:05:10.870Z,87
2022-09-28T21:07:11.011Z,87
2022-09-28T21:09:10.450Z,87
2022-09-28T21:13:11.126Z,87
2022-09-28T21:15:09.725Z,87
2022-09-28T21:17:10.809Z,87
2022-09-28T21:21:10.597Z,87
2022-09-28T21:23:10.872Z,87
2022-09-28T21:25:11.028Z,87
2022-09-28T21:27:08.189Z,87
2022-09-28T21:29:10.890Z,87
2022-09-28T21:31:10.570Z,87
2022-09-28T21:33:10.680Z,87
2022-09-28T21:37:10.941Z,87
2022-09-28T21:39:11.248Z,87
2022-09-28T21:45:07.622Z,87
2022-09-28T21:47:11.297Z,87
2022-09-28T21:49:10.202Z,87
2022-09-28T21:53:11.300Z,87
2022-09-28T21:55:10.862Z,87
2022-09-28T21:57:07.966Z,87
2022-09-28T21:59:11.047Z,87
2022-09-28T22:01:10.516Z,88
2022-09-28T22:03:09.224Z,88
2022-09-28T22:05:10.871Z,88
2022-09-28T22:07:10.659Z,88
2022-09-28T22:09:08.363Z,89
2022-09-28T22:13:09.852Z,88
2022-09-28T22:15:09.449Z,88
2022-09-28T22:17:09.509Z,88
2022-09-28T22:21:08.830Z,88
2022-09-28T22:23:10.820Z,88
2022-09-28T22:25:10.864Z,88
2022-09-28T22:27:11.173Z,88
2022-09-28T22:33:07.905Z,89
2022-09-28T22:39:10.791Z,89
2022-09-28T22:41:11.580Z,89
2022-09-28T22:43:10.771Z,89
2022-09-28T22:45:09.149Z,89
2022-09-28T22:47:13.060Z,89
2022-09-28T22:49:11.199Z,89
2022-09-28T22:51:09.542Z,89
2022-09-28T22:53:10.724Z,89
2022-09-28T22:57:11.428Z,89
2022-09-28T22:59:09.393Z,90
2022-09-28T23:01:10.951Z,90
2022-09-28T23:03:08.742Z,90
2022-09-28T23:05:11.470Z,90
2022-09-28T23:09:11.413Z,90
2022-09-28T23:11:11.413Z,90
2022-09-28T23:15:09.427Z,90
2022-09-28T23:17:10.997Z,90
2022-09-28T23:19:11.048Z,90
2022-09-28T23:21:11.189Z,90
2022-09-28T23:27:08.238Z,90
2022-09-28T23:29:11.366Z,90
2022-09-28T23:31:10.978Z,90
2022-09-28T23:33:08.228Z,90
2022-09-28T23:35:10.409Z,90
2022-09-28T23:37:10.951Z,90
2022-09-28T23:39:11.371Z,90
2022-09-28T23:41:12.919Z,90
2022-09-28T23:43:11.114Z,90
2022-09-28T23:45:11.062Z,90
2022-09-28T23:49:11.078Z,90
2022-09-28T23:51:11.560Z,90
2022-09-28T23:53:11.198Z,90
2022-09-28T23:55:11.145Z,90
2022-09-28T23:57:08.146Z,90
2022-09-28T23:59:11.211Z,90
